Logo AVAMET
Benvolgut visitant, si us plau, ingressa Recuperar contrasenya
AVAMET paisatges

Bolulla

Dades diàries. Acumulats / Últims 30 dies disponibles

Data Temperatura (°C) Humitat rel. (%) Pressió rel. (hPa) Vent (km/h) Precipitació
Mínima Mitjana Màxima Amplitud
tèrmica
Mínima Mitjana Màxima Mínima Mitjana Màxima Predom. Mitjana Ràfega
màxima
Total
(mm)
Índex-n
Mínima Mitjana Màxima Mínima Mitjana Màxima n
0 a 1
P0 max
mm 5'
Dades mensuals acumulades fins l'últim dia disponible
05/2020 12,3 15,4 18,9 20,2 19,0 24,9 29,7 17,4 31 63 96 1.001 1.015 1.025   8,1 51,8 44,9
Dades anuals acumulades fins l'últim dia disponible
2020 3,8 10,9 18,9 14,7 9,7 19,0 29,7 25,9 23 71 97 0 907 1.032   7,8 78,1 619,0
Últims 30 dies disponibles
31-05-2020 14,8     19,9     25,2 10,4 31 55 72 1.010 1.012 1.013 OSO 8,3 22,2 0,0
30-05-2020 13,7     19,3     24,9 11,2 31 55 79 1.012 1.014 1.015 OSO 8,5 28,1 0,0
29-05-2020 15,1     19,9     24,9 9,8 38 53 66 1.012 1.015 1.019 OSO 9,1 26,3 0,0
28-05-2020 17,3     20,9     24,6 7,3 48 62 74 1.018 1.021 1.024 ESE 8,9 35,9 0,0
27-05-2020 15,6     20,6     25,3 9,7 45 62 80 1.021 1.022 1.024 SO 10,4 51,8 0,0
26-05-2020 16,1     20,8     24,7 8,6 51 64 79 1.021 1.023 1.024 SE 7,7 34,2 0,0
25-05-2020 15,4     19,9     25,4 10,0 37 55 79 1.022 1.023 1.024 OSO 7,5 22,2 0,0
24-05-2020 17,4     21,4     25,2 7,8 55 65 75 1.023 1.024 1.025 SSE 9,0 33,5 0,0
23-05-2020 16,7     22,2     28,1 11,4 35 54 75 1.021 1.022 1.024 OSO 7,8 22,2 0,0
22-05-2020 16,6     22,4     29,3 12,7 38 60 81 1.019 1.021 1.023 OSO 7,5 24,1 0,0
21-05-2020 17,2     22,3     28,3 11,1 35 63 76 1.015 1.017 1.019 OSO 7,5 20,4 0,0
20-05-2020 17,1     22,2     26,6 9,5 40 62 73 1.013 1.014 1.015 OSO 7,8 20,4 0,0
19-05-2020 15,4     20,6     25,7 10,3 42 56 71 1.014 1.016 1.018 OSO 9,5 31,6 0,0
18-05-2020 12,6     18,1     23,7 11,1 53 75 92 1.017 1.019 1.020 OSO 7,6 25,9 0,0
17-05-2020 14,0     16,2     20,0 6,0 71 84 94 1.017 1.018 1.020 OSO 5,5 24,4 10,4 0,18 1,40
16-05-2020 13,4     16,3     19,0 5,6 68 77 89 1.012 1.014 1.017 SSO 9,3 46,8 13,3 0,58 0,90
15-05-2020 12,3     16,7     21,3 9,0 51 70 84 1.008 1.010 1.013 SSO 7,3 34,2 0,3
14-05-2020 13,0     15,2     19,1 6,1 52 79 96 1.001 1.004 1.008 OSO 6,9 51,8 13,1 0,64 0,70
13-05-2020 12,9     17,6     21,6 8,7 49 64 85 1.003 1.004 1.006 SO 8,9 35,2 0,0
12-05-2020 15,7     19,4     24,1 8,4 46 63 84 1.004 1.006 1.010 SSO 6,5 28,1 0,0
11-05-2020 14,0     19,2     24,3 10,3 40 58 76 1.005 1.007 1.010 OSO 8,2 42,6 0,0
10-05-2020 14,2     18,3     23,3 9,1 38 70 94 1.003 1.004 1.007 OSO 7,3 48,5 7,8 0,28 0,80
09-05-2020 16,3     19,3     24,2 7,9 61 78 92 1.007 1.010 1.013 S 6,8 29,6 0,0
08-05-2020 17,8     20,3     23,6 5,8 49 66 77 1.011 1.013 1.015 ESE 11,5 46,3 0,0
07-05-2020 15,6     23,4     25,9 10,3 35 49 74 1.013 1.016 1.017 SE 8,8 31,5 0,0
06-05-2020 15,6     20,7     25,9 10,3 54 72 86 1.013 1.014 1.015 SO 7,0 22,6 0,0
05-05-2020 16,7     21,9     26,1 9,4 51 59 75 1.011 1.012 1.013 SO 7,6 20,4 0,0
04-05-2020 15,1     21,6     28,2 13,1 31 53 76 1.012 1.014 1.015 OSO 7,4 24,1 0,0
03-05-2020 18,9     23,3     29,7 10,8 43 54 66 1.014 1.016 1.017 OSO 7,9 24,1 0,0
02-05-2020 17,0     23,5     27,9 10,9 38 54 72 1.016 1.017 1.018 SO 7,2 29,8 0,0
Últims 13 mesos disponibles
04/2020 7,8 11,5 15,7 14,8 14,4 18,8 25,6 17,8 49 74 90 1.004 1.014 1.024 O 7,4 66,6 45,6
03/2020 6,3 10,4 14,6 13,7 9,7 17,3 24,1 17,8 47 70 91 1.004 1.015 1.023 O 8,6 74,7 86,7
02/2020 5,9 9,7 15,9 13,8 13,8 18,7 26,3 20,4 38 70 95 1.013 1.023 1.031 O 7,2 50,3 2,3
01/2020 3,8 7,4 14,5 10,7 13,0 15,1 21,2 17,4 59 77 88 0 500 1.027 O 7,3 78,1 439,5
12/2019 5,8 10,1 15,6 13,2 12,2 17,1 22,7 16,9 48 73 89 0 0 O 8,0 76,6 171,6
11/2019 5,2 10,7 17,7 14,2 13,4 18,2 25,9 20,7 43 62 88 969 981 987 O 9,9 81,4 19,0
10/2019 9,4 14,7 17,6 18,6 15,8 23,1 27,9 18,5 47 73 87 973 982 987 O 7,6 70,3 59,3
09/2019 13,7 18,8 22,8 22,2 21,4 26,5 30,6 16,9 61 78 89 968 981 987 OSO 7,4 59,9 212,8
07/2019 19,4 21,6 26,4 26,2 25,0 31,2 38,4 19,0 37 60 80 966 982 987 OSO 8,0 46,3 0,2
06/2019 13,6 17,0 23,4 22,3 22,2 27,7 36,3 22,7 39 58 79 973 982 987 OSO 8,3 42,6 0,5
05/2019 9,8 13,2 18,7 17,4 18,0 22,1 26,9 17,1 56 70 84 962 984 1.001 OSO 8,1 54,2 7,1
04/2019 7,4 10,7 14,2 14,5 14,1 18,5 26,2 18,8 43 70 91 978 995 1.001 OSO 8,3 79,6
03/2019 6,8 9,0 12,2 13,4 12,2 18,0 26,4 19,6 40 61 85 991 1.014 1.028 O 8,2 56,1 44,0
Tots els anys disponibles
2018 2,8 13,6 27,2 17,3 7,4 21,5 35,3 32,5 41 69 90 984 1.013 1.032 OSO 8,0 85,1 705,8
2017 3,8 14,1 26,7 18,4 8,4 22,9 34,6 30,8 41 68 89 998 1.017 1.033 OSO 2,6 96,0 223,0
2016
Temperatura (°C)
Humitat relativa (%)
Velocitat del vent i ràfega màxima (km/h)
Direcció del vent (°)
Pressió (hPa)
Precipitació (mm)
Nota sobre les dades: s'avisa a l'usuari de la provisionalitat i no oficialitat d'aquestes dades
Logo AVAMET blanc
Web allotjada a Sollutia
Llicència de Creative CommonsLa web d'AVAMET i els seus continguts estan subjectes a una llicència de
Reconeixement - No Comercial - Compartir igual
Últimes estacions: Xodos - la Vega (Soci), la Vall d'Alba - Centre (Ajuntament soci), Chera (Ajuntament soci) - - -